Time;durP1;ratioP1;P1;durP2;ratioP2;P2;SDS_P1;SDS_P2;PMS_P1;PMS_P2;Temp;Humidity;BMP_temperature;BMP_pressure;BME280_temperature;BME280_humidity;BME280_pressure;Samples;Min_cycle;Max_cycle;Signal;HPM_P1;HPM_P2
2021/08/03 16:33:42;;;;;;;;;;;;;;;;;;92734;1221;584165;-48
2021/08/03 16:35:42;;;;;;;;;;;;;;;;;;93218;1223;59204;-47
2021/08/03 16:37:42;;;;;;;;;;;;;;;;;;93234;1222;61868;-43
2021/08/03 16:39:43;;;;;;;;;;;;;;;;;;93269;1222;61872;-42
2021/08/03 16:41:43;;;;;;;;;;;;;;;;;;93276;1222;61763;-41
2021/08/03 16:43:43;;;;;;;;;;;;;;;;;;93262;1223;61869;-48
2021/08/03 16:45:43;;;;;;;;;;;;;;;;;;93252;1223;61846;-48
2021/08/03 16:47:44;;;;;;;;;;;;;;;;;;93184;1223;61839;-51
2021/08/03 16:50:13;;;;;;;;;;;;;;;;;;92661;1224;584327;-52
2021/08/03 16:52:13;;;;;;;;;;;;;;;;;;93130;1225;61779;-50
2021/08/03 16:54:14;;;;;;;;;;;;;;;;;;93184;1225;61784;-52
2021/08/03 16:57:56;;;;;;;;;;;;;;;;;;92825;1221;584685;-49
2021/08/03 16:59:58;;;;;;;;;;;;;;;;;;93649;1210;103142;-48
2021/08/03 17:02:00;;;;;;;;;;;;;;;;;;93766;1209;61792;-50
2021/08/03 17:06:06;;;;;;;;;;;;;;;;;;90736;1244;584738;-49
2021/08/03 17:08:07;;;;;;;;;;;;;;;;;;92241;1234;69038;-48
2021/08/03 17:11:11;;;;;;;;;;;;;25.20;100314.00;;;;89310;1248;718867;-49
2021/08/03 17:13:14;;;;;;;;;;;;;25.30;100316.00;;;;91937;1238;61837;-45
2021/08/03 17:15:15;;;;;;;;;;;;;25.40;100313.00;;;;92193;1235;61852;-44
2021/08/03 17:17:27;;;;;;;;;;;;;25.40;100315.00;;;;92026;1235;80156;-45
2021/08/03 17:21:06;;;;;;;;;;;;;25.50;100316.00;;;;90701;1244;753885;-48
2021/08/03 17:23:09;;;;;;;;;;;;;25.40;100310.00;;;;92336;1233;61881;-48
2021/08/03 17:25:12;;;;;;;;;;;;;25.30;100312.00;;;;92411;1233;61816;-54
2021/08/03 17:27:15;;;;;;;;;;;;;25.20;100314.00;;;;92501;1233;61837;-54
2021/08/03 17:29:16;;;;;;;;;;;;;25.10;100314.00;;;;92203;1235;61933;-54
2021/08/03 17:31:17;;;;;;;;;;;;;25.10;100317.00;;;;92367;1233;61801;-54
2021/08/03 17:33:19;;;;;;;;;;;;;25.10;100314.00;;;;92337;1233;61851;-53
2021/08/03 17:35:20;;;;;;;;;;;;;25.10;100312.00;;;;92197;1236;61742;-48
2021/08/03 17:37:22;;;;;;;;;;;;;25.10;100314.00;;;;92286;1235;61915;-48
2021/08/03 17:39:24;;;;;;;;;;;;;25.00;100312.00;;;;92351;1234;61828;-48
2021/08/03 17:41:27;;;;;;;;;;;;;25.00;100310.00;;;;92286;1235;62717;-53
2021/08/03 17:43:28;;;;;;;;;;;;;25.00;100317.00;;;;92273;1235;62579;-53
2021/08/03 17:45:30;;;;;;;;;;;;;24.90;100311.00;;;;92270;1235;62592;-49
2021/08/03 17:47:38;;;;;;;;;;;;;24.90;100315.00;;;;92254;1235;62630;-49
2021/08/03 17:49:40;;;;;;;;;;;;;24.90;100315.00;;;;92236;1235;62672;-49
2021/08/03 17:51:45;;;;;;;;;;;;;24.80;100311.00;;;;92261;1235;62669;-49
2021/08/03 17:53:47;;;;;;;;;;;;;24.80;100311.00;;;;92240;1235;62622;-49
2021/08/03 17:55:48;;;;;;;;;;;;;24.70;100319.00;;;;92264;1235;62565;-49
2021/08/03 17:57:50;;;;;;;;;;;;;24.70;100310.00;;;;92245;1235;62614;-50
2021/08/03 17:59:52;;;;;;;;;;;;;24.70;100320.00;;;;92217;1235;62666;-49
2021/08/03 18:01:58;;;;;;;;;;;;;24.70;100314.00;;;;92248;1235;62739;-53
2021/08/03 18:04:00;;;;;;;;;;;;;24.70;100320.00;;;;92250;1235;62738;-53
2021/08/03 18:06:01;;;;;;;;;;;;;24.70;100322.00;;;;92287;1234;62666;-53
2021/08/03 18:08:03;;;;;;;;;;;;;24.70;100317.00;;;;92200;1234;62601;-54
2021/08/03 18:10:04;;;;;;;;;;;;;24.70;100323.00;;;;92204;1234;62613;-53
2021/08/03 18:12:06;;;;;;;;;;;;;24.60;100319.00;;;;92189;1234;62762;-53
2021/08/03 18:14:08;;;;;;;;;;;;;24.60;100326.00;;;;92271;1235;62590;-53
2021/08/03 18:16:10;;;;;;;;;;;;;24.60;100322.00;;;;92274;1235;62677;-49
2021/08/03 18:18:12;;;;;;;;;;;;;24.60;100321.00;;;;92272;1235;62780;-49
2021/08/03 18:20:14;;;;;;;;;;;;;24.60;100312.00;;;;92262;1235;61753;-49
2021/08/03 18:22:15;;;;;;;;;;;;;24.60;100315.00;;;;92256;1235;62619;-49
2021/08/03 18:24:17;;;;;;;;;;;;;24.50;100321.00;;;;92268;1235;62630;-49
2021/08/03 18:26:27;;;;;;;;;;;;;24.50;100318.00;;;;92290;1235;62573;-53
2021/08/03 18:28:31;;;;;;;;;;;;;24.50;100315.00;;;;92351;1235;61603;-53
2021/08/03 18:30:34;;;;;;;;;;;;;24.50;100313.00;;;;92288;1234;62803;-53
2021/08/03 18:32:55;;;;;;;;;;;;;24.50;100318.00;;;;92181;1235;62662;-51
2021/08/03 18:35:02;;;;;;;;;;;;;24.50;100318.00;;;;92183;1235;62616;-52
2021/08/03 18:37:04;;;;;;;;;;;;;24.40;100312.00;;;;92358;1233;62579;-48
2021/08/03 18:39:05;;;;;;;;;;;;;24.40;100313.00;;;;92356;1233;62691;-47
2021/08/03 18:41:07;;;;;;;;;;;;;24.40;100324.00;;;;92224;1235;62776;-48
2021/08/03 18:43:10;;;;;;;;;;;;;24.40;100322.00;;;;92171;1235;62594;-52
2021/08/03 18:45:12;;;;;;;;;;;;;24.30;100330.00;;;;92220;1235;62664;-49
2021/08/03 18:47:14;;;;;;;;;;;;;24.30;100324.00;;;;92222;1235;62718;-48
2021/08/03 18:49:15;;;;;;;;;;;;;24.30;100331.00;;;;92205;1235;62673;-48
2021/08/03 18:51:16;;;;;;;;;;;;;24.30;100324.00;;;;92205;1235;62614;-52
2021/08/03 18:53:23;;;;;;;;;;;;;24.30;100338.00;;;;92202;1235;62697;-53
2021/08/03 18:55:25;;;;;;;;;;;;;24.30;100336.00;;;;92223;1235;62607;-48
2021/08/03 18:57:27;;;;;;;;;;;;;24.30;100346.00;;;;92250;1234;62677;-48
2021/08/03 18:59:28;;;;;;;;;;;;;24.30;100344.00;;;;92232;1235;62595;-48
2021/08/03 19:01:30;;;;;;;;;;;;;24.30;100345.00;;;;92205;1235;62609;-53
2021/08/03 19:03:31;;;;;;;;;;;;;24.30;100351.00;;;;92204;1235;62646;-53
2021/08/03 19:05:34;;;;;;;;;;;;;24.20;100342.00;;;;92241;1235;62717;-49
2021/08/03 19:07:48;;;;;;;;;;;;;24.30;100348.00;;;;92229;1235;62595;-53
2021/08/03 19:09:53;;;;;;;;;;;;;24.30;100342.00;;;;92377;1233;62685;-54
2021/08/03 19:11:54;;;;;;;;;;;;;24.30;100344.00;;;;92345;1233;62577;-49
2021/08/03 19:14:02;;;;;;;;;;;;;24.30;100352.00;;;;92338;1234;62709;-50
2021/08/03 19:16:06;;;;;;;;;;;;;24.30;100360.00;;;;92360;1233;62618;-52
2021/08/03 19:18:08;;;;;;;;;;;;;24.30;100357.00;;;;92409;1233;62554;-49
2021/08/03 19:20:11;;;;;;;;;;;;;24.30;100355.00;;;;92358;1233;62601;-49
2021/08/03 19:22:13;;;;;;;;;;;;;24.30;100355.00;;;;92382;1233;59956;-49
2021/08/03 19:24:18;;;;;;;;;;;;;24.30;100355.00;;;;92379;1233;63302;-48
2021/08/03 19:26:27;;;;;;;;;;;;;24.30;100352.00;;;;92347;1233;63346;-47
2021/08/03 19:28:29;;;;;;;;;;;;;24.20;100352.00;;;;92365;1233;62622;-49
2021/08/03 19:30:31;;;;;;;;;;;;;24.20;100358.00;;;;92392;1233;62709;-51
2021/08/03 19:32:33;;;;;;;;;;;;;24.20;100358.00;;;;92452;1233;62608;-50
2021/08/03 19:34:36;;;;;;;;;;;;;24.20;100363.00;;;;92387;1233;62739;-50
2021/08/03 19:36:39;;;;;;;;;;;;;24.20;100356.00;;;;92367;1233;62675;-50
2021/08/03 19:38:41;;;;;;;;;;;;;24.20;100363.00;;;;92591;1232;62622;-48
2021/08/03 19:40:46;;;;;;;;;;;;;24.20;100369.00;;;;92553;1232;62595;-54
2021/08/03 19:42:49;;;;;;;;;;;;;24.20;100366.00;;;;92578;1232;62705;-53
2021/08/03 19:44:51;;;;;;;;;;;;;24.20;100361.00;;;;92560;1232;62713;-54
2021/08/03 19:46:54;;;;;;;;;;;;;24.20;100357.00;;;;92538;1232;62591;-52
2021/08/03 19:48:59;;;;;;;;;;;;;24.10;100361.00;;;;92587;1232;63803;-53
2021/08/03 19:51:01;;;;;;;;;;;;;24.20;100367.00;;;;92373;1233;61547;-48
2021/08/03 19:53:04;;;;;;;;;;;;;24.10;100367.00;;;;92564;1232;62614;-49
2021/08/03 19:55:07;;;;;;;;;;;;;24.20;100372.00;;;;92587;1232;62590;-53
2021/08/03 19:57:08;;;;;;;;;;;;;24.20;100376.00;;;;92596;1232;62614;-49
2021/08/03 19:59:09;;;;;;;;;;;;;24.00;100382.00;;;;92585;1232;62568;-49
2021/08/03 20:01:11;;;;;;;;;;;;;24.10;100379.00;;;;92533;1232;62603;-48
2021/08/03 20:03:12;;;;;;;;;;;;;24.10;100375.00;;;;92515;1232;62607;-50
2021/08/03 20:05:14;;;;;;;;;;;;;24.00;100372.00;;;;92374;1233;62600;-49
2021/08/03 20:07:15;;;;;;;;;;;;;24.10;100381.00;;;;92565;1232;62599;-49
2021/08/03 20:09:17;;;;;;;;;;;;;24.10;100370.00;;;;92371;1234;62646;-48
2021/08/03 20:11:20;;;;;;;;;;;;;24.00;100377.00;;;;92583;1232;62672;-53
2021/08/03 20:13:22;;;;;;;;;;;;;24.00;100371.00;;;;92722;1230;62705;-52
2021/08/03 20:15:25;;;;;;;;;;;;;24.00;100375.00;;;;92720;1230;62598;-53
2021/08/03 20:17:27;;;;;;;;;;;;;24.00;100374.00;;;;92725;1230;62591;-53
2021/08/03 20:19:28;;;;;;;;;;;;;24.00;100370.00;;;;92723;1230;62566;-52
2021/08/03 20:21:30;;;;;;;;;;;;;24.00;100371.00;;;;92678;1230;61962;-53
2021/08/03 20:23:31;;;;;;;;;;;;;24.00;100375.00;;;;92698;1230;62599;-49
2021/08/03 20:25:33;;;;;;;;;;;;;24.00;100372.00;;;;92704;1230;62625;-49
2021/08/03 20:27:38;;;;;;;;;;;;;24.00;100369.00;;;;92698;1230;63876;-48
2021/08/03 20:29:44;;;;;;;;;;;;;24.00;100377.00;;;;92722;1230;63118;-50
2021/08/03 20:31:49;;;;;;;;;;;;;23.90;100367.00;;;;92715;1230;62624;-53
2021/08/03 20:33:52;;;;;;;;;;;;;23.90;100378.00;;;;92693;1230;62600;-53
2021/08/03 20:35:55;;;;;;;;;;;;;23.90;100372.00;;;;92721;1230;59967;-48
2021/08/03 20:37:59;;;;;;;;;;;;;23.70;100377.00;;;;92743;1231;62600;-49
2021/08/03 20:42:06;;;;;;;;;;;;;24.00;100382.00;;;;92730;1230;62580;-54
2021/08/03 20:44:07;;;;;;;;;;;;;24.00;100374.00;;;;92704;1229;62769;-54
2021/08/03 20:46:09;;;;;;;;;;;;;23.90;100369.00;;;;92676;1230;63501;-49
2021/08/03 20:48:10;;;;;;;;;;;;;23.70;100381.00;;;;92684;1230;63464;-54
2021/08/03 20:50:13;;;;;;;;;;;;;23.50;100379.00;;;;92742;1230;63379;-53
2021/08/03 20:52:14;;;;;;;;;;;;;23.60;100379.00;;;;92717;1230;63423;-49
2021/08/03 20:54:16;;;;;;;;;;;;;23.40;100384.00;;;;92696;1230;63475;-49
2021/08/03 20:56:21;;;;;;;;;;;;;23.60;100377.00;;;;92686;1230;63372;-51
2021/08/03 20:58:23;;;;;;;;;;;;;23.60;100379.00;;;;92683;1230;63337;-53
2021/08/03 21:00:25;;;;;;;;;;;;;23.60;100385.00;;;;92729;1230;63391;-48
2021/08/03 21:02:28;;;;;;;;;;;;;23.60;100383.00;;;;92697;1230;63375;-50
2021/08/03 21:04:37;;;;;;;;;;;;;23.70;100383.00;;;;92692;1230;63501;-51
2021/08/03 21:06:40;;;;;;;;;;;;;23.60;100384.00;;;;92628;1230;64040;-49
2021/08/03 21:08:45;;;;;;;;;;;;;23.70;100382.00;;;;92677;1230;63433;-49
2021/08/03 21:10:47;;;;;;;;;;;;;23.60;100385.00;;;;92701;1229;62157;-48
2021/08/03 21:12:48;;;;;;;;;;;;;23.60;100387.00;;;;92692;1230;63401;-49
2021/08/03 21:14:50;;;;;;;;;;;;;23.70;100381.00;;;;92677;1230;63501;-49
2021/08/03 21:16:51;;;;;;;;;;;;;23.60;100382.00;;;;92693;1230;63421;-54
2021/08/03 21:18:53;;;;;;;;;;;;;23.40;100386.00;;;;92717;1230;63407;-53
2021/08/03 21:20:54;;;;;;;;;;;;;23.60;100386.00;;;;92699;1230;63507;-49
2021/08/03 21:22:55;;;;;;;;;;;;;23.40;100384.00;;;;92694;1232;63422;-49
2021/08/03 21:24:57;;;;;;;;;;;;;23.60;100383.00;;;;92689;1230;63478;-50
2021/08/03 21:27:02;;;;;;;;;;;;;23.60;100382.00;;;;92688;1230;63361;-48
2021/08/03 21:29:03;;;;;;;;;;;;;23.60;100383.00;;;;92699;1230;63402;-48
2021/08/03 21:31:04;;;;;;;;;;;;;23.70;100378.00;;;;92741;1230;63466;-53
2021/08/03 21:33:06;;;;;;;;;;;;;23.60;100376.00;;;;92747;1230;63387;-53
2021/08/03 21:35:08;;;;;;;;;;;;;23.60;100373.00;;;;92691;1230;63400;-52
2021/08/03 21:37:09;;;;;;;;;;;;;23.40;100370.00;;;;92648;1230;63390;-48
2021/08/03 21:39:11;;;;;;;;;;;;;23.60;100370.00;;;;92694;1232;63390;-51
2021/08/03 21:41:12;;;;;;;;;;;;;23.90;100365.00;;;;92686;1230;63505;-50
2021/08/03 21:43:14;;;;;;;;;;;;;24.00;100368.00;;;;92708;1230;63443;-51
2021/08/03 21:45:15;;;;;;;;;;;;;24.10;100363.00;;;;92560;1230;63919;-49
2021/08/03 21:47:16;;;;;;;;;;;;;24.20;100365.00;;;;92591;1233;64014;-49
2021/08/03 21:49:18;;;;;;;;;;;;;24.20;100376.00;;;;92586;1231;63533;-48
2021/08/03 21:51:19;;;;;;;;;;;;;24.30;100373.00;;;;92607;1232;63371;-53
2021/08/03 21:53:21;;;;;;;;;;;;;24.20;100374.00;;;;92564;1231;63431;-50
2021/08/03 21:55:23;;;;;;;;;;;;;24.00;100365.00;;;;92548;1231;63418;-47
2021/08/03 21:57:24;;;;;;;;;;;;;24.30;100372.00;;;;92582;1235;63383;-50
2021/08/03 21:59:26;;;;;;;;;;;;;24.20;100365.00;;;;92489;1233;63447;-49
2021/08/03 22:01:27;;;;;;;;;;;;;24.40;100374.00;;;;92562;1232;63502;-46
2021/08/03 22:03:29;;;;;;;;;;;;;24.40;100364.00;;;;92612;1231;63508;-43
2021/08/03 22:05:31;;;;;;;;;;;;;24.50;100370.00;;;;92602;1231;63514;-43
2021/08/03 22:07:33;;;;;;;;;;;;;24.50;100368.00;;;;92393;1232;63441;-46
2021/08/03 22:09:34;;;;;;;;;;;;;24.50;100367.00;;;;92497;1231;63498;-47
2021/08/03 22:11:36;;;;;;;;;;;;;24.50;100376.00;;;;92659;1230;63368;-49
2021/08/03 22:13:37;;;;;;;;;;;;;24.50;100372.00;;;;92674;1230;63362;-51
2021/08/03 22:15:39;;;;;;;;;;;;;24.40;100376.00;;;;92688;1231;63802;-50
2021/08/03 22:17:40;;;;;;;;;;;;;24.40;100380.00;;;;92652;1230;63478;-50
2021/08/03 22:19:42;;;;;;;;;;;;;24.40;100379.00;;;;92636;1230;63511;-50
2021/08/03 22:21:43;;;;;;;;;;;;;24.40;100384.00;;;;92846;1229;63496;-53
2021/08/03 22:23:45;;;;;;;;;;;;;24.40;100383.00;;;;92867;1229;63518;-53
2021/08/03 22:25:46;;;;;;;;;;;;;24.40;100381.00;;;;92807;1228;63404;-53
2021/08/03 22:27:49;;;;;;;;;;;;;24.40;100390.00;;;;92810;1228;63871;-52
2021/08/03 22:29:50;;;;;;;;;;;;;24.20;100382.00;;;;92821;1230;63413;-49
2021/08/03 22:31:52;;;;;;;;;;;;;24.10;100387.00;;;;92837;1228;63397;-50
2021/08/03 22:33:53;;;;;;;;;;;;;24.20;100386.00;;;;92825;1228;63375;-47
2021/08/03 22:35:55;;;;;;;;;;;;;24.00;100390.00;;;;92811;1229;63414;-50
2021/08/03 22:37:57;;;;;;;;;;;;;24.20;100391.00;;;;92745;1230;63403;-47
2021/08/03 22:39:58;;;;;;;;;;;;;24.40;100388.00;;;;92723;1230;63453;-46
2021/08/03 22:42:00;;;;;;;;;;;;;24.40;100394.00;;;;92720;1229;63495;-55
2021/08/03 22:44:01;;;;;;;;;;;;;24.40;100388.00;;;;92705;1229;63515;-55
2021/08/03 22:46:03;;;;;;;;;;;;;24.20;100390.00;;;;92729;1230;63862;-48
2021/08/03 22:48:04;;;;;;;;;;;;;23.70;100399.00;;;;92677;1230;63507;-48
2021/08/03 22:50:06;;;;;;;;;;;;;23.10;100407.00;;;;92759;1229;63505;-51
2021/08/03 22:52:07;;;;;;;;;;;;;23.00;100406.00;;;;92985;1228;63361;-50
2021/08/03 22:54:09;;;;;;;;;;;;;23.50;100404.00;;;;92831;1228;63430;-52
2021/08/03 22:56:55;;;;;;;;;;;;;118.00;502005.00;;;;92692;1201;623491;-51
2021/08/03 23:01:27;;;;;;;;;;;;;23.94;100392.40;;;;93133;1212;584728;-49
2021/08/03 23:03:29;;;;;;;;;;;;;23.94;100395.20;;;;94572;1199;61762;-48
2021/08/03 23:05:30;;;;;;;;;;;;;22.90;100396.40;;;;94614;1199;61693;-46
2021/08/03 23:07:32;;;;;;;;;;;;;22.40;100403.40;;;;94178;1200;99259;-46
2021/08/03 23:10:43;;;;;;;;;;;;;23.10;100396.40;;;;93833;1206;584134;-51
2021/08/03 23:12:44;;;;;;;;;;;;;23.34;100390.20;;;;95279;1195;61859;-51
2021/08/03 23:14:45;;;;;;;;;;;;;24.00;100379.40;;;;95345;1195;61782;-49
2021/08/03 23:24:39;;;;;;;11.10;4.10;;;;;-128.00;-1.00;;;;93653;1208;634839;-44
2021/08/03 23:26:41;;;;;;;9.70;4.10;;;;;-128.00;-1.00;;;;95681;1192;61782;-42
2021/08/03 23:28:43;;;;;;;12.50;4.70;;;;;-128.00;-1.00;;;;95766;1186;60557;-41
2021/08/03 23:31:52;;;;;;;10.60;4.60;;;;;-128.00;-1.00;;;;93063;1208;624427;-45
2021/08/03 23:33:53;;;;;;;8.80;4.10;;;;;-128.00;-1.00;;;;95392;1188;61788;-48
2021/08/03 23:37:02;;;;;;;11.20;4.50;;;;;22.84;100372.40;;;;92189;1220;585834;-47
2021/08/03 23:39:04;;;;;;;9.80;4.10;;;;;22.70;100373.40;;;;93278;1203;103694;-46
2021/08/03 23:41:05;;;;;;;8.30;4.00;;;;;23.42;100374.80;;;;93416;1207;84211;-41
2021/08/03 23:43:07;;;;;;;8.50;3.80;;;;;23.92;100373.20;;;;93725;1208;100903;-41
2021/08/03 23:45:09;;;;;;;8.20;3.90;;;;;24.20;100367.60;;;;93737;1202;93240;-41
2021/08/03 23:47:55;;;;;;;10.30;4.10;;;;;24.12;100366.80;;;;91813;1234;585524;-41
2021/08/03 23:50:00;;;;;;;9.90;3.60;;;;;24.10;100364.80;;;;93089;1224;61911;-45
2021/08/03 23:52:02;;;;;;;9.40;3.60;;;;;24.20;100363.00;;;;93150;1209;84204;-49
2021/08/03 23:54:04;;;;;;;8.30;3.50;;;;;24.10;100363.20;;;;93208;1223;100012;-48
2021/08/03 23:56:05;;;;;;;8.60;3.40;;;;;24.10;100363.40;;;;93166;1224;94306;-49
2021/08/03 23:58:07;;;;;;;8.40;3.40;;;;;24.10;100363.00;;;;93192;1222;84063;-42
